Flight Track Log - Related Links

Times and Time Zones

All times are in EDT time to prevent confusion due to time zone crossing. See the EJA583 flight status page for this flight to view local times or setup timezone preferences in your user account.

Time Position Orientation Groundspeed Altitude Reporting Facility
EDT Latitude Longitude Course Direction KTS MPH feet Rate Location/Type
Tue 09:26:20 PM 33.6333 -111.9000 320° Northwest 167 192 2,300  Level Phoenix TRACON
Tue 09:26:56 PM 33.6500 -111.9167 320° Northwest 201 231 3,400 1,918 Climbing Phoenix TRACON
Tue 09:27:57 PM 33.6667 -112.0000 284° West 244 281 5,400 1,835 Climbing Phoenix TRACON
Tue 09:28:57 PM 33.7167 -112.0500 320° Northwest 253 291 7,100 2,250 Climbing Phoenix TRACON
Tue 09:29:57 PM 33.7333 -112.1333 284° West 275 316 9,900 2,643 Climbing Phoenix TRACON
Tue 09:31:20 PM 33.7350 -112.2644 271° West 287 330 13,400 2,524 Climbing Albuquerque Center
Tue 09:32:22 PM 33.7256 -112.3594 263° West 293 337 16,000 2,195 Climbing Albuquerque Center
Tue 09:33:23 PM 33.6997 -112.4567 252° West 306 352 17,900 1,869 Climbing Albuquerque Center
Tue 09:34:24 PM 33.6678 -112.5506 248° West 320 368 19,800 2,115 Climbing Albuquerque Center
Tue 09:35:25 PM 33.6147 -112.6283 231° Southwest 312 359 22,200 2,164 Climbing Albuquerque Center
Tue 09:36:26 PM 33.5994 -112.7225 259° West 309 356 24,200 1,512 Climbing Albuquerque Center
Tue 09:37:28 PM 33.6078 -112.8228 276° West 304 350 25,300 829 Climbing Albuquerque Center
Tue 09:38:29 PM 33.6189 -112.9389 277° West 335 386 25,900 344 Climbing Albuquerque Center
Tue 09:39:30 PM 33.6325 -113.0931 276° West 377 434 26,000 49 Climbing Albuquerque Center
Tue 09:40:32 PM 33.6433 -113.2056 277° West 397 457 26,000  Level Albuquerque Center
Tue 09:41:33 PM 33.6569 -113.3686 276° West 407 468 26,000  Level Albuquerque Center
Tue 09:42:34 PM 33.6692 -113.5078 276° West 416 479 26,000  Level Albuquerque Center
Tue 09:43:36 PM 33.6817 -113.6461 276° West 417 480 26,000  Level Albuquerque Center
Tue 09:44:37 PM 33.6939 -113.7844 276° West 418 481 26,000  Level Albuquerque Center
Tue 09:45:38 PM 33.7047 -113.9233 275° West 418 481 26,000  Level Albuquerque Center
Tue 09:46:39 PM 33.7169 -114.0619 276° West 418 481 26,000  Level Albuquerque Center
Tue 09:47:40 PM 33.7256 -114.2028 274° West 421 484 26,000  Level Albuquerque Center
Tue 09:48:41 PM 33.7181 -114.3611 267° West 419 482 26,000 -293 Level Albuquerque Center
Tue 09:49:43 PM 33.7119 -114.5019 267° West 423 487 25,400 -647 Descending Albuquerque Center
Tue 09:51:00 PM 33.7053 -114.6842 268° West 438 504 24,500 -863 Descending Los Angeles Center
Tue 09:52:02 PM 33.6981 -114.8289 267° West 437 503 23,400 -726 Descending Los Angeles Center
Tue 09:53:04 PM 33.6917 -114.9714 267° West 431 496 23,000 -195 Descending Los Angeles Center
Tue 09:54:05 PM 33.6850 -115.1094 267° West 420 483 23,000 -49 Level Los Angeles Center
Tue 09:55:07 PM 33.6767 -115.2725 267° West 411 473 22,900 -242 Descending Los Angeles Center
Tue 09:56:09 PM 33.6700 -115.4100 267° West 415 478 22,500 -774 Descending Los Angeles Center
Tue 09:57:11 PM 33.6625 -115.5497 266° West 420 483 21,300 -1,122 Descending Los Angeles Center
Tue 09:58:12 PM 33.6561 -115.6819 267° West 402 463 20,200 -1,122 Descending Los Angeles Center
Tue 09:59:14 PM 33.6481 -115.8153 266° West 403 464 19,000 -1,113 Descending Los Angeles Center
Tue 10:00:16 PM 33.6408 -115.9469 266° West 400 460 17,900 -1,067 Descending Los Angeles Center
Tue 10:01:29 PM 33.6317 -116.1008 266° West 388 447 16,600 -838 Descending Los Angeles Center
Tue 10:02:32 PM 33.5903 -116.2358 250° West 371 427 16,000 -774 Descending Los Angeles Center
Tue 10:03:33 PM 33.5364 -116.3431 239° Southwest 374 430 15,000 -976 Descending Los Angeles Center
Tue 10:04:35 PM 33.4833 -116.4497 239° Southwest 376 433 14,000 -968 Descending Los Angeles Center
Tue 10:05:37 PM 33.4319 -116.5503 239° Southwest 363 418 13,000 -484 Descending Los Angeles Center
Tue 10:06:39 PM 33.3803 -116.6508 238° Southwest 358 412 13,000 -439 Level Los Angeles Center
Tue 10:07:40 PM 33.3197 -116.7728 239° Southwest 359 413 12,100 -1,415 Descending Los Angeles Center
Tue 10:08:42 PM 33.2783 -116.8536 239° Southwest 305 351 10,100 -2,087 Descending Los Angeles Center
Tue 10:09:12 PM 33.2500 -116.9000 234° Southwest 265 305 8,900 -2,800 Descending Southern California TRACON
Tue 10:10:12 PM 33.2167 -116.9667 239° Southwest 268 308 5,900 -1,950 Descending Southern California TRACON
Tue 10:11:12 PM 33.1833 -117.0333 239° Southwest 216 249 5,000 -1,150 Descending Southern California TRACON
Tue 10:12:12 PM 33.1667 -117.0833 248° West 195 224 3,600 -1,190 Descending Southern California TRACON
Tue 10:13:13 PM 33.1500 -117.1333 248° West 134 154 2,600 -850 Descending Southern California TRACON
Tue 10:14:12 PM 33.1500 -117.1833 270° West 125 144 1,900 -700 Descending Southern California TRACON
Tue 10:15:13 PM 33.1333 -117.2167 239° Southwest 140 161 1,200 -645 Descending Southern California TRACON
Tue 10:16:13 PM 33.1333 -117.2667 270° West 121 139 600 -600 Descending Southern California TRACON
Tue 10:18:00 PM 33.1167 -117.2667 90° East  Level FlightAware Approximate

Login

Don't have an account? Register now (free) for customized features, flight alerts, and more!